createdAt,value
2019-02-16T00:00:51.285Z,5.77
2019-02-16T00:03:35.282Z,6.17
2019-02-16T00:06:08.526Z,6.40
2019-02-16T00:08:51.579Z,5.50
2019-02-16T00:11:25.432Z,5.50
2019-02-16T00:13:58.841Z,5.20
2019-02-16T00:16:32.989Z,5.20
2019-02-16T00:19:15.468Z,5.43
2019-02-16T00:21:49.695Z,5.70
2019-02-16T00:24:31.747Z,5.80
2019-02-16T00:27:05.019Z,5.90
2019-02-16T00:29:38.821Z,5.57
2019-02-16T00:32:12.284Z,5.53
2019-02-16T00:34:46.256Z,5.17
2019-02-16T00:37:19.636Z,5.40
2019-02-16T00:39:53.534Z,5.10
2019-02-16T00:42:26.615Z,5.60
2019-02-16T00:45:00.464Z,5.80
2019-02-16T00:47:33.942Z,5.40
2019-02-16T00:50:07.500Z,5.43
2019-02-16T00:52:41.070Z,5.60
2019-02-16T00:55:14.642Z,6.07
2019-02-16T00:57:47.660Z,5.47
2019-02-16T01:00:31.617Z,5.47
2019-02-16T01:03:05.077Z,5.67
2019-02-16T01:05:38.671Z,5.50
2019-02-16T01:08:12.482Z,5.57
2019-02-16T01:10:45.893Z,5.07
2019-02-16T01:13:31.153Z,5.43
2019-02-16T01:16:04.159Z,5.60
2019-02-16T01:18:37.339Z,5.70
2019-02-16T01:21:10.903Z,5.37
2019-02-16T01:23:43.647Z,5.43
2019-02-16T01:26:25.863Z,4.80
2019-02-16T01:28:59.413Z,5.23
2019-02-16T01:31:32.511Z,5.20
2019-02-16T01:34:06.398Z,5.10
2019-02-16T01:36:40.587Z,4.80
2019-02-16T01:39:14.040Z,5.60
2019-02-16T01:41:47.891Z,5.40
2019-02-16T01:44:30.584Z,5.70
2019-02-16T01:47:04.072Z,5.83
2019-02-16T01:49:38.413Z,5.10
2019-02-16T01:52:20.594Z,5.10
2019-02-16T01:54:53.724Z,4.60
2019-02-16T01:57:27.543Z,5.33
2019-02-16T02:00:01.271Z,5.00
2019-02-16T02:02:35.756Z,5.30
2019-02-16T02:05:09.226Z,4.63
2019-02-16T02:07:51.791Z,5.83
2019-02-16T02:10:34.273Z,5.20
2019-02-16T02:13:07.802Z,5.67
2019-02-16T02:15:41.302Z,6.20
2019-02-16T02:18:15.118Z,5.40
2019-02-16T02:20:48.538Z,5.87
2019-02-16T02:23:23.680Z,5.77
2019-02-16T02:25:57.050Z,6.60
2019-02-16T02:28:30.197Z,5.77
2019-02-16T02:31:12.385Z,5.63
2019-02-16T02:33:46.530Z,5.97
2019-02-16T02:36:28.493Z,5.40
2019-02-16T02:39:01.889Z,5.80
2019-02-16T02:41:45.188Z,5.40
2019-02-16T02:44:19.024Z,6.00
2019-02-16T02:47:03.796Z,5.90
2019-02-16T02:49:37.728Z,5.40
2019-02-16T02:52:11.469Z,6.20
2019-02-16T02:54:45.003Z,6.33
2019-02-16T02:57:18.770Z,5.50
2019-02-16T03:00:01.724Z,5.80
2019-02-16T03:02:36.579Z,5.67
2019-02-16T03:05:10.563Z,5.80
2019-02-16T03:07:53.241Z,5.17
2019-02-16T03:10:35.901Z,5.60
2019-02-16T03:13:09.312Z,5.77
2019-02-16T03:15:42.743Z,5.63
2019-02-16T03:18:16.459Z,5.40
2019-02-16T03:20:50.606Z,6.20
2019-02-16T03:23:24.287Z,5.63
2019-02-16T03:26:13.574Z,5.60
2019-02-16T03:29:25.804Z,5.90
2019-02-16T03:32:29.032Z,5.43
2019-02-16T03:35:43.107Z,6.27
2019-02-16T03:38:44.173Z,5.10
2019-02-16T03:41:17.968Z,6.10
2019-02-16T03:43:52.204Z,5.50
2019-02-16T03:46:34.894Z,5.90
2019-02-16T03:49:23.730Z,5.73
2019-02-16T03:52:13.225Z,6.03
2019-02-16T03:54:42.232Z,6.40
2019-02-16T03:57:15.962Z,5.67
2019-02-16T03:59:48.036Z,5.57
2019-02-16T04:02:21.868Z,5.20
2019-02-16T04:04:54.963Z,5.40
2019-02-16T04:07:37.501Z,5.40
2019-02-16T04:10:19.910Z,5.43
2019-02-16T04:12:53.149Z,5.50
2019-02-16T04:15:26.977Z,5.70
2019-02-16T04:18:00.770Z,5.63
2019-02-16T04:20:33.919Z,5.57
2019-02-16T04:23:07.009Z,5.43
2019-02-16T04:25:48.853Z,4.97
2019-02-16T04:28:22.575Z,6.03
2019-02-16T04:30:55.770Z,5.60
2019-02-16T04:33:29.841Z,4.73
2019-02-16T04:36:03.590Z,5.50
2019-02-16T04:38:37.450Z,5.50
2019-02-16T04:41:19.987Z,5.40
2019-02-16T04:43:53.498Z,5.80
2019-02-16T04:46:27.371Z,5.70
2019-02-16T04:49:11.670Z,5.47
2019-02-16T04:51:45.362Z,5.67
2019-02-16T04:54:19.257Z,5.87
2019-02-16T04:57:02.104Z,6.20
2019-02-16T04:59:51.008Z,5.90
2019-02-16T05:02:33.952Z,5.43
2019-02-16T05:05:16.780Z,5.63
2019-02-16T05:07:59.203Z,6.00
2019-02-16T05:10:33.099Z,5.33
2019-02-16T05:13:15.771Z,5.40
2019-02-16T05:15:49.385Z,5.70
2019-02-16T05:18:23.517Z,5.27
2019-02-16T05:21:06.026Z,5.20
2019-02-16T05:23:48.945Z,6.00
2019-02-16T05:26:31.628Z,5.87
2019-02-16T05:29:14.652Z,5.87
2019-02-16T05:31:57.293Z,6.07
2019-02-16T05:34:40.214Z,5.30
2019-02-16T05:37:13.415Z,5.40
2019-02-16T05:39:45.855Z,6.00
2019-02-16T05:42:28.944Z,5.90
2019-02-16T05:45:10.874Z,6.23
2019-02-16T05:47:46.160Z,6.30
2019-02-16T05:50:19.600Z,6.00
2019-02-16T05:52:54.653Z,5.80
2019-02-16T05:55:28.280Z,5.90
2019-02-16T05:58:01.611Z,5.70
2019-02-16T06:00:35.366Z,5.93
2019-02-16T06:03:08.495Z,5.73
2019-02-16T06:05:50.959Z,5.60
2019-02-16T06:08:24.172Z,6.37
2019-02-16T06:10:58.182Z,5.50
2019-02-16T06:13:31.840Z,6.00
2019-02-16T06:16:05.352Z,5.90
2019-02-16T06:18:39.143Z,5.60
2019-02-16T06:21:21.497Z,5.80
2019-02-16T06:23:54.905Z,5.23
2019-02-16T06:26:29.063Z,5.17
2019-02-16T06:29:02.486Z,5.67
2019-02-16T06:31:37.584Z,5.60
2019-02-16T06:34:10.951Z,5.50
2019-02-16T06:36:44.026Z,5.63
2019-02-16T06:39:26.227Z,6.10
2019-02-16T06:41:59.617Z,5.70
2019-02-16T06:44:33.511Z,5.30
2019-02-16T06:47:06.925Z,5.23
2019-02-16T06:49:40.828Z,6.07
2019-02-16T06:52:13.949Z,5.03
2019-02-16T06:54:48.060Z,5.50
2019-02-16T06:57:31.932Z,5.90
2019-02-16T07:00:06.026Z,5.93
2019-02-16T07:02:39.436Z,5.60
2019-02-16T07:05:12.531Z,6.27
2019-02-16T07:07:44.847Z,6.20
2019-02-16T07:10:18.249Z,6.90
2019-02-16T07:12:51.658Z,6.10
2019-02-16T07:15:33.842Z,5.97
2019-02-16T07:18:21.669Z,6.70
2019-02-16T07:20:55.069Z,6.33
2019-02-16T07:23:28.517Z,7.13
2019-02-16T07:26:02.377Z,6.67
2019-02-16T07:28:35.744Z,6.60
2019-02-16T07:31:09.293Z,6.40
2019-02-16T07:33:42.804Z,6.50
2019-02-16T07:36:16.107Z,6.70
2019-02-16T07:38:58.628Z,5.97
2019-02-16T07:41:41.540Z,5.80
2019-02-16T07:44:45.364Z,6.83
2019-02-16T07:47:43.530Z,6.73
2019-02-16T07:50:28.676Z,6.47
2019-02-16T07:53:38.494Z,6.60
2019-02-16T07:56:28.791Z,7.00
2019-02-16T07:59:38.378Z,7.40
2019-02-16T08:02:29.868Z,7.50
2019-02-16T08:05:27.930Z,7.50
2019-02-16T08:08:26.469Z,7.43
2019-02-16T08:11:36.847Z,6.67
2019-02-16T08:14:17.579Z,5.97
2019-02-16T08:17:15.658Z,6.90
2019-02-16T08:20:23.841Z,6.67
2019-02-16T08:23:40.559Z,6.40
2019-02-16T08:26:35.752Z,6.47
2019-02-16T08:29:34.568Z,7.10
2019-02-16T08:32:37.053Z,6.50
2019-02-16T08:35:47.601Z,6.63
2019-02-16T08:38:35.113Z,6.67
2019-02-16T08:41:36.004Z,7.10
2019-02-16T08:44:24.707Z,7.13
2019-02-16T08:47:15.730Z,7.07
2019-02-16T08:50:07.630Z,7.33
2019-02-16T08:53:10.691Z,6.70
2019-02-16T08:56:18.018Z,7.20
2019-02-16T08:59:29.925Z,7.57
2019-02-16T09:02:26.021Z,7.73
2019-02-16T09:05:12.771Z,6.63
2019-02-16T09:07:55.681Z,7.67
2019-02-16T09:10:54.952Z,7.20
2019-02-16T09:13:53.124Z,7.33
2019-02-16T09:16:50.329Z,7.10
2019-02-16T09:19:33.183Z,7.03
2019-02-16T09:22:41.197Z,6.93
2019-02-16T09:25:23.847Z,6.67
2019-02-16T09:28:19.109Z,7.80
2019-02-16T09:31:19.321Z,7.20
2019-02-16T09:34:21.510Z,7.47
2019-02-16T09:37:08.224Z,7.93
2019-02-16T09:40:17.196Z,8.33
2019-02-16T09:42:56.362Z,8.57
2019-02-16T09:45:47.416Z,8.80
2019-02-16T09:48:42.894Z,8.67
2019-02-16T09:51:50.422Z,8.60
2019-02-16T09:54:42.671Z,8.90
2019-02-16T09:57:35.358Z,8.37
2019-02-16T10:00:44.641Z,8.97
2019-02-16T10:03:40.231Z,9.53
2019-02-16T10:06:51.026Z,8.37
2019-02-16T10:09:32.336Z,9.73
2019-02-16T10:12:23.197Z,9.37
2019-02-16T10:15:15.539Z,9.00
2019-02-16T10:18:42.923Z,9.43
2019-02-16T10:22:04.466Z,9.83
2019-02-16T10:25:15.077Z,9.77
2019-02-16T10:28:00.238Z,8.93
2019-02-16T10:30:56.940Z,9.73
2019-02-16T10:33:57.397Z,9.60
2019-02-16T10:36:48.960Z,9.70
2019-02-16T10:40:06.974Z,9.00
2019-02-16T10:42:58.090Z,9.80
2019-02-16T10:46:05.950Z,10.67
2019-02-16T10:48:55.546Z,10.73
2019-02-16T10:51:47.974Z,10.47
2019-02-16T10:54:40.396Z,9.87
2019-02-16T10:57:50.721Z,10.83
2019-02-16T11:01:06.390Z,9.90
2019-02-16T11:03:57.148Z,10.47
2019-02-16T11:06:55.694Z,11.40
2019-02-16T11:09:54.033Z,10.07
2019-02-16T11:12:41.186Z,10.50
2019-02-16T11:15:49.114Z,10.53
2019-02-16T11:18:56.655Z,10.80
2019-02-16T11:21:58.919Z,11.00
2019-02-16T11:25:00.303Z,10.33
2019-02-16T11:28:08.105Z,11.37
2019-02-16T11:30:59.830Z,11.67
2019-02-16T11:34:07.487Z,10.80
2019-02-16T11:36:52.241Z,12.17
2019-02-16T11:39:33.120Z,11.17
2019-02-16T11:42:34.841Z,12.30
2019-02-16T11:45:26.400Z,11.53
2019-02-16T11:48:31.555Z,11.57
2019-02-16T11:51:55.895Z,11.93
2019-02-16T11:55:13.621Z,11.70
2019-02-16T11:58:09.673Z,12.47
2019-02-16T12:01:06.362Z,11.83
2019-02-16T12:04:13.741Z,12.33
2019-02-16T12:07:26.985Z,12.10
2019-02-16T12:10:10.307Z,12.10
2019-02-16T12:13:29.834Z,12.20
2019-02-16T12:16:12.395Z,12.70
2019-02-16T12:18:58.784Z,12.77
2019-02-16T12:21:51.174Z,12.60
2019-02-16T12:25:05.108Z,12.70
2019-02-16T12:27:54.175Z,11.37
2019-02-16T12:30:47.005Z,12.50
2019-02-16T12:33:33.115Z,13.57
2019-02-16T12:36:24.187Z,13.70
2019-02-16T12:39:26.380Z,12.77
2019-02-16T12:42:41.435Z,13.53
2019-02-16T12:45:27.185Z,13.20
2019-02-16T12:48:45.412Z,13.30
2019-02-16T12:52:10.567Z,13.40
2019-02-16T12:54:53.377Z,13.90
2019-02-16T12:57:37.029Z,13.07
2019-02-16T13:00:43.567Z,13.70
2019-02-16T13:03:58.140Z,13.60
2019-02-16T13:07:19.513Z,13.50
2019-02-16T13:10:15.419Z,13.23
2019-02-16T13:13:04.942Z,13.30
2019-02-16T13:15:57.401Z,12.87
2019-02-16T13:19:07.291Z,14.10
2019-02-16T13:21:48.968Z,13.70
2019-02-16T13:24:47.843Z,13.20
2019-02-16T13:27:48.960Z,13.43
2019-02-16T13:30:44.011Z,13.10
2019-02-16T13:33:52.923Z,13.87
2019-02-16T13:36:38.742Z,13.73
2019-02-16T13:39:53.902Z,14.13
2019-02-16T13:42:34.068Z,13.80
2019-02-16T13:45:29.555Z,13.97
2019-02-16T13:48:13.930Z,13.77
2019-02-16T13:51:18.867Z,16.10
2019-02-16T13:54:17.718Z,14.83
2019-02-16T13:57:25.257Z,14.90
2019-02-16T14:00:11.565Z,14.10
2019-02-16T14:03:03.011Z,15.17
2019-02-16T14:05:55.226Z,15.43
2019-02-16T14:08:39.576Z,13.97
2019-02-16T14:11:58.388Z,14.03
2019-02-16T14:14:51.557Z,13.97
2019-02-16T14:17:51.684Z,14.10
2019-02-16T14:20:25.120Z,13.70
2019-02-16T14:23:07.535Z,14.17
2019-02-16T14:25:45.971Z,14.33
2019-02-16T14:28:20.524Z,14.23
2019-02-16T14:30:53.621Z,14.10
2019-02-16T14:33:36.426Z,13.63
2019-02-16T14:36:19.059Z,14.03
2019-02-16T14:39:16.909Z,14.33
2019-02-16T14:41:50.172Z,14.20
2019-02-16T14:44:32.480Z,14.13
2019-02-16T14:47:16.776Z,15.43
2019-02-16T14:49:50.774Z,14.13
2019-02-16T14:52:33.243Z,13.80
2019-02-16T14:55:07.672Z,13.97
2019-02-16T14:57:41.252Z,14.00
2019-02-16T15:00:14.477Z,13.13
2019-02-16T15:02:58.362Z,14.37
2019-02-16T15:05:31.812Z,13.90
2019-02-16T15:08:05.838Z,13.93
2019-02-16T15:10:39.367Z,13.73
2019-02-16T15:13:13.246Z,13.60
2019-02-16T15:15:56.102Z,14.67
2019-02-16T15:18:38.791Z,13.80
2019-02-16T15:21:27.420Z,14.40
2019-02-16T15:24:00.843Z,14.60
2019-02-16T15:26:34.625Z,13.97
2019-02-16T15:29:09.252Z,14.10
2019-02-16T15:31:42.869Z,14.40
2019-02-16T15:34:16.333Z,13.83
2019-02-16T15:36:49.443Z,14.27
2019-02-16T15:39:31.918Z,14.00
2019-02-16T15:42:05.043Z,14.57
2019-02-16T15:44:38.939Z,14.20
2019-02-16T15:47:12.848Z,14.10
2019-02-16T15:49:55.508Z,14.27
2019-02-16T15:52:28.971Z,13.37
2019-02-16T15:55:03.340Z,14.70
2019-02-16T15:57:36.831Z,14.73
2019-02-16T16:00:24.121Z,14.73
2019-02-16T16:03:06.259Z,14.73
2019-02-16T16:05:39.706Z,14.27
2019-02-16T16:08:42.005Z,13.37
2019-02-16T16:11:20.765Z,13.73
2019-02-16T16:14:06.685Z,13.70
2019-02-16T16:16:53.450Z,13.87
2019-02-16T16:19:52.322Z,14.33
2019-02-16T16:22:47.178Z,14.87
2019-02-16T16:25:42.585Z,14.77
2019-02-16T16:28:33.335Z,14.80
2019-02-16T16:31:44.715Z,16.10
2019-02-16T16:34:45.048Z,15.37
2019-02-16T16:37:27.135Z,15.27
2019-02-16T16:40:28.434Z,15.67
2019-02-16T16:43:30.017Z,14.37
2019-02-16T16:46:51.233Z,15.03
2019-02-16T16:49:52.595Z,15.13
2019-02-16T16:52:54.581Z,13.90
2019-02-16T16:55:33.723Z,14.87
2019-02-16T16:58:29.094Z,16.07
2019-02-16T17:01:20.060Z,15.23
2019-02-16T17:04:08.914Z,14.50
2019-02-16T17:07:01.276Z,14.60
2019-02-16T17:09:51.168Z,16.03
2019-02-16T17:12:46.846Z,14.60
2019-02-16T17:15:39.802Z,15.40
2019-02-16T17:18:22.608Z,15.03
2019-02-16T17:21:14.971Z,16.37
2019-02-16T17:24:24.161Z,16.43
2019-02-16T17:30:24.929Z,17.30
2019-02-16T17:33:29.636Z,16.67
2019-02-16T17:36:21.733Z,16.33
2019-02-16T17:39:07.676Z,18.07
2019-02-16T17:41:49.096Z,18.93
2019-02-16T17:44:40.472Z,23.10
2019-02-16T17:47:36.398Z,22.53
2019-02-16T17:50:19.555Z,24.50
2019-02-16T17:53:14.949Z,23.83
2019-02-16T17:56:13.158Z,21.47
2019-02-16T17:59:01.646Z,20.40
2019-02-16T18:02:17.133Z,20.77
2019-02-16T18:05:15.646Z,20.23
2019-02-16T18:08:16.966Z,19.60
2019-02-16T18:11:09.500Z,18.13
2019-02-16T18:13:53.809Z,20.60
2019-02-16T18:16:47.206Z,18.67
2019-02-16T18:19:37.039Z,20.13
2019-02-16T18:22:29.407Z,18.73
2019-02-16T18:25:23.200Z,19.53
2019-02-16T18:28:10.602Z,19.47
2019-02-16T18:31:01.626Z,18.80
2019-02-16T18:33:57.869Z,18.50
2019-02-16T18:36:50.261Z,19.37
2019-02-16T18:39:31.696Z,18.90
2019-02-16T18:42:36.906Z,18.50
2019-02-16T18:45:57.561Z,18.67
2019-02-16T18:49:09.809Z,18.87
2019-02-16T18:52:02.254Z,19.47
2019-02-16T18:55:20.367Z,18.73
2019-02-16T18:58:05.542Z,18.43
2019-02-16T19:00:56.382Z,18.77
2019-02-16T19:03:41.033Z,19.03
2019-02-16T19:06:44.155Z,18.17
2019-02-16T19:10:08.544Z,17.80
2019-02-16T19:13:17.814Z,19.07
2019-02-16T19:16:03.782Z,18.87
2019-02-16T19:18:55.148Z,19.03
2019-02-16T19:21:47.170Z,17.50
2019-02-16T19:24:55.427Z,17.10
2019-02-16T19:28:15.233Z,17.97
2019-02-16T19:31:11.626Z,17.33
2019-02-16T19:34:12.623Z,17.77
2019-02-16T19:37:05.009Z,15.33
2019-02-16T19:40:16.024Z,16.63
2019-02-16T19:43:23.755Z,16.83
2019-02-16T19:46:12.264Z,17.83
2019-02-16T19:49:21.326Z,17.80
2019-02-16T19:52:01.033Z,17.70
2019-02-16T19:54:47.102Z,17.13
2019-02-16T19:57:38.013Z,18.80
2019-02-16T20:00:33.246Z,18.73
2019-02-16T20:03:31.045Z,17.53
2019-02-16T20:06:40.701Z,18.07
2019-02-16T20:09:22.400Z,18.57
2019-02-16T20:12:08.145Z,17.57
2019-02-16T20:14:50.093Z,16.73
2019-02-16T20:17:31.596Z,17.00
2019-02-16T20:20:41.808Z,18.30
2019-02-16T20:23:41.874Z,17.80
2019-02-16T20:26:37.075Z,17.40
2019-02-16T20:29:29.764Z,18.97
2019-02-16T20:32:34.517Z,20.60
2019-02-16T20:35:36.342Z,18.60
2019-02-16T20:38:36.648Z,18.50
2019-02-16T20:41:28.979Z,21.23
2019-02-16T20:44:47.079Z,21.73
2019-02-16T20:47:57.588Z,22.50
2019-02-16T20:50:56.062Z,22.37
2019-02-16T20:53:52.193Z,25.03
2019-02-16T20:56:47.278Z,24.60
2019-02-16T20:59:40.429Z,25.73
2019-02-16T21:02:51.578Z,24.53
2019-02-16T21:05:42.970Z,25.13
2019-02-16T21:08:35.514Z,25.57
2019-02-16T21:11:26.798Z,24.63
2019-02-16T21:14:22.622Z,23.73
2019-02-16T21:17:03.236Z,24.23
2019-02-16T21:20:10.982Z,24.07
2019-02-16T21:23:05.844Z,24.20
2019-02-16T21:26:36.494Z,23.33
2019-02-16T21:29:14.897Z,22.33
2019-02-16T21:32:04.336Z,22.73
2019-02-16T21:34:55.426Z,20.27
2019-02-16T21:37:55.890Z,23.07
2019-02-16T21:40:36.816Z,23.03
2019-02-16T21:43:36.473Z,24.40
2019-02-16T21:46:42.051Z,24.67
2019-02-16T21:49:33.241Z,25.70
2019-02-16T21:52:25.122Z,23.73
2019-02-16T21:55:35.389Z,25.20
2019-02-16T21:58:53.090Z,24.20
2019-02-16T22:01:47.023Z,24.77
2019-02-16T22:04:53.596Z,26.87
2019-02-16T22:08:04.852Z,25.77
2019-02-16T22:10:54.935Z,24.93
2019-02-16T22:13:28.863Z,24.47
2019-02-16T22:16:12.804Z,24.27
2019-02-16T22:18:46.585Z,24.70
2019-02-16T22:21:20.701Z,25.07
2019-02-16T22:24:03.126Z,23.63
2019-02-16T22:26:36.929Z,24.07
2019-02-16T22:29:10.991Z,23.90
2019-02-16T22:31:54.365Z,23.63
2019-02-16T22:34:36.761Z,22.97
2019-02-16T22:37:19.918Z,24.17
2019-02-16T22:40:02.541Z,23.43
2019-02-16T22:42:46.113Z,24.50
2019-02-16T22:45:19.375Z,22.23
2019-02-16T22:47:53.342Z,23.97
2019-02-16T22:50:27.046Z,21.83
2019-02-16T22:53:09.761Z,21.53
2019-02-16T22:55:42.903Z,21.80
2019-02-16T22:58:16.478Z,23.00
2019-02-16T23:00:51.754Z,22.47
2019-02-16T23:03:26.971Z,22.10
2019-02-16T23:06:00.437Z,22.33
2019-02-16T23:08:33.928Z,20.90
2019-02-16T23:11:07.551Z,20.93
2019-02-16T23:13:40.811Z,20.37
2019-02-16T23:16:14.330Z,20.77
2019-02-16T23:18:56.667Z,20.83
2019-02-16T23:21:39.047Z,20.83
2019-02-16T23:24:12.851Z,22.03
2019-02-16T23:26:46.477Z,20.43
2019-02-16T23:29:19.990Z,20.83
2019-02-16T23:31:53.905Z,21.10
2019-02-16T23:34:38.031Z,21.20
2019-02-16T23:37:11.411Z,21.07
2019-02-16T23:39:44.931Z,21.43
2019-02-16T23:42:18.380Z,21.27
2019-02-16T23:44:52.232Z,21.47
2019-02-16T23:47:25.757Z,22.70
2019-02-16T23:49:59.328Z,20.30
2019-02-16T23:52:32.852Z,20.23
2019-02-16T23:55:06.601Z,22.03
2019-02-16T23:57:40.547Z,21.87
